createdAt,value
2018-07-30T00:02:17.264Z,21.04
2018-07-30T00:04:46.143Z,21.03
2018-07-30T00:07:15.248Z,20.99
2018-07-30T00:09:44.007Z,20.98
2018-07-30T00:12:13.178Z,20.97
2018-07-30T00:14:42.166Z,20.95
2018-07-30T00:17:11.376Z,20.96
2018-07-30T00:19:40.172Z,21.03
2018-07-30T00:22:09.188Z,21.04
2018-07-30T00:24:38.182Z,21.10
2018-07-30T00:27:07.102Z,21.19
2018-07-30T00:29:35.887Z,21.27
2018-07-30T00:32:04.915Z,21.30
2018-07-30T00:34:33.705Z,21.29
2018-07-30T00:37:02.565Z,21.30
2018-07-30T00:39:32.130Z,21.28
2018-07-30T00:42:01.094Z,21.24
2018-07-30T00:44:30.064Z,21.24
2018-07-30T00:46:58.943Z,21.29
2018-07-30T00:49:27.789Z,21.38
2018-07-30T00:51:56.738Z,21.52
2018-07-30T00:54:25.950Z,21.75
2018-07-30T00:56:56.113Z,21.92
2018-07-30T00:59:24.990Z,22.04
2018-07-30T01:01:53.767Z,22.11
2018-07-30T01:04:22.463Z,22.14
2018-07-30T01:06:52.091Z,22.17
2018-07-30T01:09:35.520Z,22.22
2018-07-30T01:12:05.337Z,22.13
2018-07-30T01:14:34.130Z,22.01
2018-07-30T01:17:03.026Z,21.86
2018-07-30T01:19:31.875Z,21.74
2018-07-30T01:22:00.738Z,21.63
2018-07-30T01:24:29.555Z,21.54
2018-07-30T01:26:58.413Z,21.45
2018-07-30T01:29:27.294Z,21.35
2018-07-30T01:31:56.086Z,21.33
2018-07-30T01:34:24.917Z,21.32
2018-07-30T01:36:53.826Z,21.27
2018-07-30T01:39:22.672Z,21.22
2018-07-30T01:41:51.525Z,21.19
2018-07-30T01:44:20.393Z,21.18
2018-07-30T01:46:49.237Z,21.15
2018-07-30T01:49:18.090Z,21.14
2018-07-30T01:51:46.899Z,21.16
2018-07-30T01:54:15.738Z,21.20
2018-07-30T01:56:44.591Z,21.24
2018-07-30T01:59:13.518Z,21.24
2018-07-30T02:01:42.369Z,21.23
2018-07-30T02:04:11.218Z,21.27
2018-07-30T02:06:40.060Z,21.31
2018-07-30T02:11:37.733Z,21.25
2018-07-30T02:14:07.372Z,21.24
2018-07-30T02:16:36.224Z,21.21
2018-07-30T02:19:05.144Z,21.08
2018-07-30T02:21:35.091Z,20.94
2018-07-30T02:24:03.998Z,20.81
2018-07-30T02:26:32.878Z,20.72
2018-07-30T02:29:01.821Z,20.61
2018-07-30T02:31:30.706Z,20.53
2018-07-30T02:33:59.573Z,20.47
2018-07-30T02:36:28.372Z,20.44
2018-07-30T02:38:57.219Z,20.43
2018-07-30T02:41:26.086Z,20.41
2018-07-30T02:43:54.963Z,20.36
2018-07-30T02:46:23.841Z,20.30
2018-07-30T02:48:52.860Z,20.24
2018-07-30T02:51:21.690Z,20.12
2018-07-30T02:53:50.566Z,19.99
2018-07-30T02:56:19.365Z,19.90
2018-07-30T02:58:48.274Z,19.83
2018-07-30T03:01:17.156Z,19.79
2018-07-30T03:03:46.091Z,19.78
2018-07-30T03:06:14.984Z,19.74
2018-07-30T03:08:43.906Z,19.71
2018-07-30T03:11:12.756Z,19.69
2018-07-30T03:13:41.593Z,19.75
2018-07-30T03:16:10.441Z,19.80
2018-07-30T03:18:39.331Z,19.84
2018-07-30T03:21:09.394Z,19.94
2018-07-30T03:23:38.296Z,20.10
2018-07-30T03:26:07.161Z,20.23
2018-07-30T03:28:36.184Z,20.35
2018-07-30T03:31:05.077Z,20.47
2018-07-30T03:33:33.970Z,20.49
2018-07-30T03:36:02.842Z,20.49
2018-07-30T03:38:31.706Z,20.51
2018-07-30T03:41:00.542Z,20.53
2018-07-30T03:43:29.472Z,20.47
2018-07-30T03:45:58.296Z,20.39
2018-07-30T03:48:27.124Z,20.29
2018-07-30T03:50:56.073Z,20.20
2018-07-30T03:53:25.016Z,20.17
2018-07-30T03:55:53.941Z,20.19
2018-07-30T03:58:22.837Z,20.25
2018-07-30T04:00:51.676Z,20.28
2018-07-30T04:03:20.666Z,20.27
2018-07-30T04:05:49.480Z,20.32
2018-07-30T04:08:18.428Z,20.37
2018-07-30T04:10:47.310Z,20.43
2018-07-30T04:13:16.222Z,20.45
2018-07-30T04:15:45.018Z,20.39
2018-07-30T04:18:13.889Z,20.33
2018-07-30T04:20:42.800Z,20.34
2018-07-30T04:23:11.674Z,20.35
2018-07-30T04:25:40.514Z,20.43
2018-07-30T04:28:09.360Z,20.53
2018-07-30T04:30:38.221Z,20.67
2018-07-30T04:33:07.391Z,20.79
2018-07-30T04:35:36.249Z,20.90
2018-07-30T04:38:05.220Z,21.06
2018-07-30T04:40:34.119Z,21.21
2018-07-30T04:43:03.035Z,21.33
2018-07-30T04:45:31.900Z,21.44
2018-07-30T04:48:00.760Z,21.54
2018-07-30T04:50:29.597Z,21.59
2018-07-30T04:52:58.456Z,21.63
2018-07-30T04:55:27.360Z,21.70
2018-07-30T04:57:56.162Z,21.77
2018-07-30T05:00:25.121Z,21.90
2018-07-30T05:02:53.953Z,22.07
2018-07-30T05:05:22.786Z,22.27
2018-07-30T05:07:51.611Z,22.45
2018-07-30T05:10:20.448Z,22.54
2018-07-30T05:12:49.273Z,22.62
2018-07-30T05:15:18.125Z,22.69
2018-07-30T05:17:46.937Z,22.78
2018-07-30T05:20:15.777Z,22.82
2018-07-30T05:22:44.693Z,22.80
2018-07-30T05:25:13.517Z,22.73
2018-07-30T05:27:42.294Z,22.63
2018-07-30T05:30:11.256Z,22.46
2018-07-30T05:32:40.122Z,22.30
2018-07-30T05:35:09.054Z,22.20
2018-07-30T05:37:37.947Z,22.12
2018-07-30T05:40:06.866Z,22.09
2018-07-30T05:42:35.741Z,22.13
2018-07-30T05:45:05.017Z,22.23
2018-07-30T05:47:33.846Z,22.39
2018-07-30T05:50:02.781Z,22.58
2018-07-30T05:52:31.570Z,22.84
2018-07-30T05:55:00.489Z,23.05
2018-07-30T05:57:29.365Z,23.22
2018-07-30T05:59:58.228Z,23.43
2018-07-30T06:02:27.143Z,23.67
2018-07-30T06:04:56.022Z,23.95
2018-07-30T06:07:24.873Z,24.26
2018-07-30T06:09:53.776Z,24.58
2018-07-30T06:12:22.606Z,24.95
2018-07-30T06:14:51.537Z,25.24
2018-07-30T06:17:20.407Z,25.56
2018-07-30T06:19:49.333Z,25.88
2018-07-30T06:22:18.135Z,26.20
2018-07-30T06:24:46.962Z,26.48
2018-07-30T06:27:15.863Z,26.57
2018-07-30T06:29:44.713Z,26.42
2018-07-30T06:32:13.634Z,26.28
2018-07-30T06:34:42.512Z,26.34
2018-07-30T06:37:11.411Z,26.56
2018-07-30T06:39:40.382Z,26.66
2018-07-30T06:42:10.271Z,26.71
2018-07-30T06:44:54.497Z,26.72
2018-07-30T06:47:23.434Z,26.76
2018-07-30T06:49:52.336Z,26.87
2018-07-30T06:52:34.705Z,26.99
2018-07-30T06:55:06.436Z,27.09
2018-07-30T06:57:35.350Z,26.95
2018-07-30T07:00:05.226Z,26.87
2018-07-30T07:02:34.245Z,26.89
2018-07-30T07:05:03.168Z,27.17
2018-07-30T07:07:32.057Z,27.59
2018-07-30T07:10:00.994Z,27.78
2018-07-30T07:12:30.012Z,27.92
2018-07-30T07:14:58.972Z,28.10
2018-07-30T07:17:27.893Z,28.19
2018-07-30T07:19:56.805Z,28.04
2018-07-30T07:22:25.673Z,28.01
2018-07-30T07:24:54.694Z,27.87
2018-07-30T07:27:23.678Z,27.84
2018-07-30T07:29:52.646Z,27.96
2018-07-30T07:32:21.558Z,28.10
2018-07-30T07:34:50.484Z,27.97
2018-07-30T07:37:19.438Z,27.98
2018-07-30T07:39:48.414Z,28.12
2018-07-30T07:42:17.373Z,28.43
2018-07-30T07:44:46.313Z,28.85
2018-07-30T07:47:15.245Z,29.05
2018-07-30T07:49:44.273Z,29.26
2018-07-30T07:52:13.256Z,29.50
2018-07-30T07:54:42.329Z,29.76
2018-07-30T07:57:11.302Z,30.04
2018-07-30T07:59:40.313Z,30.26
2018-07-30T08:02:09.393Z,30.44
2018-07-30T08:04:38.414Z,30.38
2018-07-30T08:07:07.440Z,30.54
2018-07-30T08:09:36.478Z,30.70
2018-07-30T08:12:12.116Z,30.35
2018-07-30T08:14:41.153Z,29.97
2018-07-30T08:17:10.137Z,29.90
2018-07-30T08:19:39.112Z,30.01
2018-07-30T08:22:08.049Z,30.24
2018-07-30T08:24:36.994Z,30.40
2018-07-30T08:27:05.956Z,30.44
2018-07-30T08:29:34.821Z,30.66
2018-07-30T08:32:03.951Z,30.93
2018-07-30T08:34:32.936Z,31.09
2018-07-30T08:37:01.842Z,31.20
2018-07-30T08:39:30.802Z,31.20
2018-07-30T08:42:12.728Z,31.07
2018-07-30T08:44:41.731Z,30.93
2018-07-30T08:47:24.054Z,30.67
2018-07-30T08:49:53.114Z,30.32
2018-07-30T08:52:23.141Z,30.18
2018-07-30T08:54:52.460Z,30.26
2018-07-30T08:57:21.327Z,30.28
2018-07-30T08:59:50.196Z,30.48
2018-07-30T09:02:21.278Z,30.81
2018-07-30T09:04:50.332Z,31.18
2018-07-30T09:07:19.256Z,31.54
2018-07-30T09:09:48.157Z,31.65
2018-07-30T09:12:17.076Z,31.74
2018-07-30T09:14:46.170Z,31.76
2018-07-30T09:17:15.222Z,31.82
2018-07-30T09:19:44.197Z,31.87
2018-07-30T09:22:15.195Z,31.77
2018-07-30T09:24:44.152Z,31.70
2018-07-30T09:27:13.025Z,31.55
2018-07-30T09:29:42.123Z,31.25
2018-07-30T09:32:11.098Z,30.96
2018-07-30T09:34:40.073Z,30.72
2018-07-30T09:37:09.099Z,30.61
2018-07-30T09:39:38.091Z,30.48
2018-07-30T09:42:07.148Z,30.46
2018-07-30T09:44:36.149Z,30.45
2018-07-30T09:47:04.999Z,30.38
2018-07-30T09:49:34.025Z,30.22
2018-07-30T09:52:03.019Z,30.14
2018-07-30T09:54:32.014Z,30.21
2018-07-30T09:57:01.010Z,30.30
2018-07-30T09:59:30.548Z,30.48
2018-07-30T10:01:59.582Z,30.45
2018-07-30T10:04:31.168Z,30.51
2018-07-30T10:07:00.059Z,30.72
2018-07-30T10:09:29.048Z,30.88
2018-07-30T10:11:58.011Z,30.81
2018-07-30T10:14:27.300Z,30.73
2018-07-30T10:16:56.402Z,30.90
2018-07-30T10:19:31.102Z,30.88
2018-07-30T10:22:20.651Z,30.86
2018-07-30T10:24:55.533Z,31.07
2018-07-30T10:27:24.844Z,31.28
2018-07-30T10:29:53.722Z,31.35
2018-07-30T10:32:22.966Z,31.18
2018-07-30T10:34:52.037Z,31.16
2018-07-30T10:37:21.040Z,31.27
2018-07-30T10:39:54.283Z,31.42
2018-07-30T10:42:23.308Z,31.60
2018-07-30T10:44:52.286Z,31.72
2018-07-30T10:47:21.277Z,31.72
2018-07-30T10:49:56.277Z,31.84
2018-07-30T10:52:26.517Z,32.22
2018-07-30T10:54:55.497Z,32.38
2018-07-30T10:57:24.431Z,32.57
2018-07-30T10:59:54.073Z,32.78
2018-07-30T11:02:23.814Z,32.87
2018-07-30T11:04:54.560Z,32.96
2018-07-30T11:07:25.315Z,32.83
2018-07-30T11:09:56.377Z,32.74
2018-07-30T11:12:26.899Z,32.51
2018-07-30T11:14:57.663Z,32.65
2018-07-30T11:17:30.815Z,32.91
2018-07-30T11:20:01.027Z,33.14
2018-07-30T11:22:33.024Z,33.40
2018-07-30T11:25:02.605Z,33.46
2018-07-30T11:27:33.660Z,33.33
2018-07-30T11:30:02.795Z,33.15
2018-07-30T11:32:31.819Z,33.42
2018-07-30T11:35:04.260Z,33.55
2018-07-30T11:37:33.143Z,33.84
2018-07-30T11:40:02.178Z,34.24
2018-07-30T11:42:31.132Z,34.65
2018-07-30T11:45:04.928Z,34.81
2018-07-30T11:47:33.828Z,35.10
2018-07-30T11:50:02.859Z,35.33
2018-07-30T11:52:32.009Z,35.33
2018-07-30T11:55:00.880Z,35.12
2018-07-30T11:57:29.832Z,35.00
2018-07-30T11:59:58.876Z,35.04
2018-07-30T12:02:30.503Z,35.65
2018-07-30T12:05:08.824Z,36.40
2018-07-30T12:07:37.702Z,37.05
2018-07-30T12:10:06.678Z,37.51
2018-07-30T12:12:35.598Z,37.59
2018-07-30T12:15:21.162Z,37.16
2018-07-30T12:17:50.025Z,36.73
2018-07-30T12:20:18.971Z,36.49
2018-07-30T12:22:48.120Z,36.38
2018-07-30T12:25:17.240Z,36.35
2018-07-30T12:27:46.283Z,36.44
2018-07-30T12:30:15.356Z,36.35
2018-07-30T12:32:44.312Z,36.22
2018-07-30T12:35:47.370Z,36.24
2018-07-30T12:38:16.234Z,36.32
2018-07-30T12:40:45.311Z,36.55
2018-07-30T12:43:15.086Z,36.73
2018-07-30T12:45:47.507Z,36.78
2018-07-30T12:48:16.557Z,37.08
2018-07-30T12:50:45.750Z,37.81
2018-07-30T12:53:14.768Z,39.63
2018-07-30T12:55:48.660Z,42.44
2018-07-30T12:58:17.578Z,45.08
2018-07-30T13:00:46.489Z,45.84
2018-07-30T13:03:15.542Z,46.29
2018-07-30T13:05:44.453Z,47.59
2018-07-30T13:08:13.396Z,47.15
2018-07-30T13:10:42.395Z,45.49
2018-07-30T13:13:11.421Z,45.34
2018-07-30T13:15:40.458Z,46.76
2018-07-30T13:18:09.300Z,48.59
2018-07-30T13:20:38.279Z,47.79
2018-07-30T13:23:07.306Z,46.48
2018-07-30T13:25:37.686Z,46.52
2018-07-30T13:28:06.813Z,46.27
2018-07-30T13:30:35.838Z,45.96
2018-07-30T13:33:04.850Z,45.93
2018-07-30T13:35:33.917Z,46.83
2018-07-30T13:38:02.951Z,47.03
2018-07-30T13:40:31.994Z,46.05
2018-07-30T13:43:01.082Z,45.53
2018-07-30T13:45:32.084Z,47.47
2018-07-30T13:48:01.180Z,49.05
2018-07-30T13:50:30.693Z,49.51
2018-07-30T13:52:59.708Z,49.89
2018-07-30T13:55:28.676Z,50.65
2018-07-30T13:57:57.677Z,50.19
2018-07-30T14:00:26.669Z,49.78
2018-07-30T14:02:55.692Z,49.66
2018-07-30T14:05:25.738Z,48.17
2018-07-30T14:07:54.865Z,47.85
2018-07-30T14:10:23.905Z,45.56
2018-07-30T14:12:53.046Z,46.48
2018-07-30T14:15:29.344Z,45.86
2018-07-30T14:17:58.352Z,45.10
2018-07-30T14:20:27.478Z,43.54
2018-07-30T14:22:56.544Z,42.08
2018-07-30T14:25:33.033Z,41.89
2018-07-30T14:28:02.167Z,41.19
2018-07-30T14:30:31.150Z,40.73
2018-07-30T14:33:00.094Z,40.61
2018-07-30T14:35:30.787Z,40.40
2018-07-30T14:38:00.151Z,40.37
2018-07-30T14:40:30.620Z,40.02
2018-07-30T14:43:00.210Z,39.73
2018-07-30T14:45:30.279Z,40.24
2018-07-30T14:47:59.240Z,42.22
2018-07-30T14:50:38.202Z,44.13
2018-07-30T14:53:08.153Z,44.45
2018-07-30T14:55:41.182Z,43.60
2018-07-30T14:58:22.585Z,42.68
2018-07-30T15:00:51.882Z,42.14
2018-07-30T15:03:20.945Z,42.25
2018-07-30T15:05:53.403Z,42.73
2018-07-30T15:08:22.360Z,43.04
2018-07-30T15:10:51.373Z,42.76
2018-07-30T15:13:20.420Z,42.05
2018-07-30T15:15:49.360Z,42.08
2018-07-30T15:18:18.379Z,44.05
2018-07-30T15:20:47.344Z,45.37
2018-07-30T15:23:16.320Z,45.44
2018-07-30T15:25:45.311Z,42.98
2018-07-30T15:28:14.230Z,42.35
2018-07-30T15:30:43.225Z,42.54
2018-07-30T15:33:12.224Z,42.68
2018-07-30T15:35:41.204Z,43.16
2018-07-30T15:38:10.207Z,43.76
2018-07-30T15:40:39.213Z,45.87
2018-07-30T15:43:08.224Z,45.88
2018-07-30T15:45:37.230Z,44.70
2018-07-30T15:48:06.306Z,44.43
2018-07-30T15:50:35.223Z,44.91
2018-07-30T15:53:04.318Z,45.56
2018-07-30T15:55:33.287Z,46.00
2018-07-30T15:58:02.196Z,45.80
2018-07-30T16:00:31.063Z,46.49
2018-07-30T16:02:59.974Z,48.32
2018-07-30T16:05:29.022Z,49.72
2018-07-30T16:07:57.933Z,48.36
2018-07-30T16:10:26.958Z,47.38
2018-07-30T16:12:55.838Z,46.04
2018-07-30T16:15:24.911Z,44.04
2018-07-30T16:17:54.045Z,42.31
2018-07-30T16:20:22.981Z,40.80
2018-07-30T16:22:52.056Z,39.46
2018-07-30T16:25:21.033Z,39.86
2018-07-30T16:27:49.952Z,41.04
2018-07-30T16:30:18.948Z,41.31
2018-07-30T16:32:48.080Z,40.39
2018-07-30T16:35:17.268Z,40.33
2018-07-30T16:37:46.308Z,41.74
2018-07-30T16:40:15.354Z,43.22
2018-07-30T16:42:44.305Z,44.32
2018-07-30T16:45:13.223Z,45.82
2018-07-30T16:47:42.172Z,46.12
2018-07-30T16:50:11.291Z,45.93
2018-07-30T16:52:40.269Z,45.28
2018-07-30T16:55:09.374Z,44.90
2018-07-30T16:57:38.386Z,45.01
2018-07-30T17:00:10.050Z,45.36
2018-07-30T17:02:39.103Z,45.11
2018-07-30T17:05:08.337Z,44.59
2018-07-30T17:07:37.262Z,43.49
2018-07-30T17:10:06.410Z,42.62
2018-07-30T17:12:35.426Z,42.45
2018-07-30T17:15:04.503Z,42.02
2018-07-30T17:17:33.353Z,41.99
2018-07-30T17:20:02.449Z,42.12
2018-07-30T17:22:31.437Z,41.74
2018-07-30T17:25:00.439Z,41.56
2018-07-30T17:27:29.548Z,41.36
2018-07-30T17:29:58.671Z,41.45
2018-07-30T17:32:27.559Z,41.39
2018-07-30T17:34:56.598Z,41.20
2018-07-30T17:37:25.611Z,41.14
2018-07-30T17:39:54.680Z,40.80
2018-07-30T17:42:23.574Z,40.38
2018-07-30T17:44:52.668Z,40.28
2018-07-30T17:47:21.598Z,39.97
2018-07-30T17:49:50.548Z,39.81
2018-07-30T17:52:20.568Z,39.45
2018-07-30T17:54:49.589Z,39.13
2018-07-30T17:57:18.459Z,37.84
2018-07-30T17:59:47.513Z,36.53
2018-07-30T18:02:16.533Z,35.41
2018-07-30T18:04:45.478Z,34.44
2018-07-30T18:07:14.516Z,33.62
2018-07-30T18:09:43.551Z,33.14
2018-07-30T18:12:12.619Z,32.76
2018-07-30T18:14:41.663Z,32.42
2018-07-30T18:17:10.709Z,32.38
2018-07-30T18:19:39.671Z,32.59
2018-07-30T18:22:08.570Z,32.76
2018-07-30T18:24:37.521Z,32.49
2018-07-30T18:27:06.428Z,32.08
2018-07-30T18:29:35.504Z,31.77
2018-07-30T18:32:04.435Z,31.38
2018-07-30T18:34:33.507Z,30.85
2018-07-30T18:37:02.504Z,30.25
2018-07-30T18:39:31.613Z,29.69
2018-07-30T18:42:00.580Z,29.20
2018-07-30T18:44:29.544Z,28.84
2018-07-30T18:46:58.564Z,28.56
2018-07-30T18:49:27.459Z,28.27
2018-07-30T18:51:56.536Z,28.03
2018-07-30T18:54:25.525Z,27.78
2018-07-30T18:56:54.455Z,27.56
2018-07-30T18:59:23.469Z,27.32
2018-07-30T19:01:52.459Z,27.03
2018-07-30T19:04:21.615Z,26.77
2018-07-30T19:06:50.533Z,26.51
2018-07-30T19:09:19.579Z,26.23
2018-07-30T19:11:48.645Z,25.99
2018-07-30T19:14:17.657Z,25.72
2018-07-30T19:16:51.953Z,25.47
2018-07-30T19:19:21.275Z,25.24
2018-07-30T19:21:50.333Z,25.05
2018-07-30T19:24:20.132Z,24.90
2018-07-30T19:26:49.160Z,24.84
2018-07-30T19:29:18.275Z,24.66
2018-07-30T19:31:47.375Z,24.43
2018-07-30T19:34:16.470Z,24.29
2018-07-30T19:36:45.577Z,24.16
2018-07-30T19:39:14.874Z,24.03
2018-07-30T19:41:43.975Z,23.93
2018-07-30T19:44:13.140Z,23.92
2018-07-30T19:46:42.021Z,23.85
2018-07-30T19:49:10.911Z,23.80
2018-07-30T19:51:40.136Z,23.73
2018-07-30T19:54:12.409Z,23.65
2018-07-30T19:56:41.405Z,23.55
2018-07-30T19:59:10.502Z,23.48
2018-07-30T20:01:39.473Z,23.46
2018-07-30T20:04:08.445Z,23.43
2018-07-30T20:06:37.467Z,23.36
2018-07-30T20:09:09.550Z,23.32
2018-07-30T20:11:38.390Z,23.28
2018-07-30T20:14:07.281Z,23.24
2018-07-30T20:16:36.823Z,23.19
2018-07-30T20:19:05.909Z,23.11
2018-07-30T20:21:34.954Z,23.05
2018-07-30T20:24:03.962Z,22.97
2018-07-30T20:26:34.128Z,22.89
2018-07-30T20:29:03.118Z,22.86
2018-07-30T20:31:32.073Z,22.82
2018-07-30T20:34:01.004Z,22.82
2018-07-30T20:36:30.253Z,22.88
2018-07-30T20:38:59.162Z,22.94
2018-07-30T20:41:28.162Z,22.94
2018-07-30T20:43:57.278Z,22.95
2018-07-30T20:46:26.276Z,23.03
2018-07-30T20:48:55.162Z,23.15
2018-07-30T20:51:24.097Z,23.25
2018-07-30T20:53:53.188Z,23.38
2018-07-30T20:56:22.228Z,23.51
2018-07-30T20:58:51.198Z,23.59
2018-07-30T21:01:20.308Z,23.69
2018-07-30T21:03:49.246Z,23.79
2018-07-30T21:06:18.189Z,23.89
2018-07-30T21:08:47.202Z,23.98
2018-07-30T21:11:16.671Z,24.26
2018-07-30T21:13:45.680Z,24.74
2018-07-30T21:16:14.692Z,25.17
2018-07-30T21:18:43.704Z,25.49
2018-07-30T21:21:12.742Z,25.55
2018-07-30T21:23:41.716Z,25.51
2018-07-30T21:26:10.610Z,25.50
2018-07-30T21:28:39.624Z,25.53
2018-07-30T21:31:08.703Z,25.44
2018-07-30T21:33:37.710Z,25.17
2018-07-30T21:36:06.933Z,24.77
2018-07-30T21:38:35.919Z,24.35
2018-07-30T21:41:04.905Z,24.03
2018-07-30T21:43:34.058Z,23.77
2018-07-30T21:46:02.964Z,23.57
2018-07-30T21:48:31.856Z,23.44
2018-07-30T21:51:00.760Z,23.34
2018-07-30T21:53:29.790Z,23.24
2018-07-30T21:55:58.806Z,23.16
2018-07-30T21:58:27.815Z,23.10
2018-07-30T22:00:58.124Z,23.06
2018-07-30T22:03:27.767Z,22.93
2018-07-30T22:06:00.812Z,22.83
2018-07-30T22:08:30.125Z,22.71
2018-07-30T22:10:59.282Z,22.67
2018-07-30T22:13:28.140Z,22.56
2018-07-30T22:15:58.226Z,22.45
2018-07-30T22:18:27.214Z,22.32
2018-07-30T22:20:56.367Z,22.25
2018-07-30T22:23:25.370Z,22.17
2018-07-30T22:25:54.296Z,22.08
2018-07-30T22:28:23.163Z,22.04
2018-07-30T22:30:52.285Z,22.06
2018-07-30T22:33:21.260Z,22.33
2018-07-30T22:35:50.315Z,22.71
2018-07-30T22:38:19.281Z,22.87
2018-07-30T22:40:48.248Z,22.87
2018-07-30T22:43:17.136Z,22.85
2018-07-30T22:45:46.181Z,22.79
2018-07-30T22:48:15.124Z,22.83
2018-07-30T22:50:44.140Z,23.14
2018-07-30T22:53:13.126Z,23.58
2018-07-30T22:55:42.210Z,24.02
2018-07-30T22:58:11.220Z,24.38
2018-07-30T23:00:40.165Z,24.74
2018-07-30T23:03:09.361Z,24.94
2018-07-30T23:05:38.338Z,24.98
2018-07-30T23:08:07.447Z,24.98
2018-07-30T23:10:36.396Z,24.99
2018-07-30T23:13:05.344Z,24.97
2018-07-30T23:15:34.397Z,24.89
2018-07-30T23:18:03.494Z,24.76
2018-07-30T23:20:32.390Z,24.67
2018-07-30T23:23:01.239Z,24.54
2018-07-30T23:25:30.233Z,24.54
2018-07-30T23:27:59.277Z,24.58
2018-07-30T23:30:28.156Z,24.62
2018-07-30T23:32:57.223Z,24.56
2018-07-30T23:35:26.085Z,24.37
2018-07-30T23:37:55.026Z,24.21
2018-07-30T23:40:24.092Z,24.14
2018-07-30T23:42:53.066Z,24.22
2018-07-30T23:45:22.046Z,24.30
2018-07-30T23:47:51.073Z,24.33
2018-07-30T23:50:20.030Z,24.42
2018-07-30T23:52:48.959Z,24.58
2018-07-30T23:55:18.110Z,24.58
2018-07-30T23:57:47.173Z,24.47
